createdAt,value
2022-08-05T00:00:54.667Z,24.76
2022-08-05T00:02:58.184Z,24.79
2022-08-05T00:05:05.888Z,24.92
2022-08-05T00:07:26.809Z,24.94
2022-08-05T00:09:32.870Z,24.75
2022-08-05T00:11:49.597Z,24.74
2022-08-05T00:14:00.867Z,24.90
2022-08-05T00:16:08.562Z,24.88
2022-08-05T00:18:21.858Z,24.63
2022-08-05T00:20:29.040Z,24.45
2022-08-05T00:22:32.758Z,24.33
2022-08-05T00:24:36.329Z,24.34
2022-08-05T00:26:51.785Z,24.32
2022-08-05T00:28:55.702Z,24.40
2022-08-05T00:31:04.147Z,24.53
2022-08-05T00:34:42.499Z,24.59
2022-08-05T00:35:33.369Z,24.63
2022-08-05T00:37:53.011Z,24.66
2022-08-05T00:39:58.641Z,24.70
2022-08-05T00:42:02.648Z,24.71
2022-08-05T00:44:06.754Z,24.60
2022-08-05T00:46:11.933Z,24.62
2022-08-05T00:48:27.568Z,24.63
2022-08-05T00:50:35.215Z,24.50
2022-08-05T00:52:39.294Z,24.33
2022-08-05T00:54:42.765Z,24.49
2022-08-05T00:56:51.608Z,24.45
2022-08-05T00:58:55.385Z,24.35
2022-08-05T01:01:00.357Z,24.34
2022-08-05T01:03:07.629Z,24.25
2022-08-05T01:05:12.741Z,24.32
2022-08-05T01:07:19.166Z,24.29
2022-08-05T01:09:22.874Z,24.29
2022-08-05T01:11:33.635Z,24.23
2022-08-05T01:13:58.700Z,24.13
2022-08-05T01:16:07.865Z,23.98
2022-08-05T01:18:17.457Z,23.75
2022-08-05T01:20:31.298Z,23.61
2022-08-05T01:22:47.925Z,23.44
2022-08-05T01:25:23.759Z,23.43
2022-08-05T01:27:55.464Z,23.35
2022-08-05T01:30:04.487Z,23.33
2022-08-05T01:32:18.406Z,23.22
2022-08-05T01:34:27.192Z,23.16
2022-08-05T01:36:33.990Z,23.06
2022-08-05T01:38:38.870Z,23.02
2022-08-05T01:40:43.045Z,23.26
2022-08-05T01:42:48.041Z,23.21
2022-08-05T01:44:56.997Z,23.13
2022-08-05T01:47:05.219Z,22.97
2022-08-05T01:49:23.896Z,22.92
2022-08-05T01:51:31.203Z,22.97
2022-08-05T01:53:57.643Z,22.93
2022-08-05T01:56:04.511Z,22.85
2022-08-05T01:58:30.226Z,22.74
2022-08-05T02:00:38.236Z,22.64
2022-08-05T02:02:54.559Z,22.49
2022-08-05T02:05:04.853Z,22.49
2022-08-05T02:07:21.941Z,22.40
2022-08-05T02:09:26.233Z,22.25
2022-08-05T02:11:42.481Z,22.25
2022-08-05T02:13:57.080Z,22.14
2022-08-05T02:16:05.403Z,21.99
2022-08-05T02:18:30.821Z,21.86
2022-08-05T02:20:45.068Z,21.82
2022-08-05T02:22:57.018Z,21.86
2022-08-05T02:25:13.368Z,21.75
2022-08-05T02:27:19.896Z,21.77
2022-08-05T02:29:59.474Z,21.81
2022-08-05T02:32:04.764Z,21.87
2022-08-05T02:34:12.452Z,21.88
2022-08-05T02:36:19.172Z,21.92
2022-08-05T02:38:26.993Z,21.83
2022-08-05T02:40:42.133Z,21.97
2022-08-05T02:42:53.100Z,21.90
2022-08-05T02:44:58.626Z,21.86
2022-08-05T02:47:06.205Z,21.78
2022-08-05T02:49:11.252Z,21.59
2022-08-05T02:51:19.422Z,21.56
2022-08-05T02:53:39.183Z,21.37
2022-08-05T02:55:54.688Z,21.05
2022-08-05T02:58:10.567Z,20.94
2022-08-05T03:00:17.920Z,21.18
2022-08-05T03:02:27.780Z,21.32
2022-08-05T03:04:32.001Z,21.38
2022-08-05T03:06:55.672Z,21.32
2022-08-05T03:09:02.695Z,21.52
2022-08-05T03:11:56.607Z,21.59
2022-08-05T03:13:52.119Z,21.37
2022-08-05T03:16:05.154Z,21.31
2022-08-05T03:18:09.949Z,21.30
2022-08-05T03:20:13.845Z,21.35
2022-08-05T03:22:18.873Z,21.47
2022-08-05T03:24:35.573Z,21.48
2022-08-05T03:26:39.634Z,20.97
2022-08-05T03:28:43.192Z,20.85
2022-08-05T03:30:48.457Z,20.90
2022-08-05T03:32:52.064Z,21.12
2022-08-05T03:34:57.167Z,21.33
2022-08-05T03:37:00.628Z,21.35
2022-08-05T03:39:13.018Z,21.31
2022-08-05T03:41:23.620Z,21.38
2022-08-05T03:44:08.168Z,21.31
2022-08-05T03:45:57.910Z,21.24
2022-08-05T03:48:02.433Z,21.39
2022-08-05T03:50:10.071Z,21.48
2022-08-05T03:52:38.455Z,21.50
2022-08-05T03:55:53.359Z,21.22
2022-08-05T03:57:18.234Z,21.21
2022-08-05T03:59:26.214Z,21.37
2022-08-05T04:01:36.898Z,21.43
2022-08-05T04:04:09.211Z,21.67
2022-08-05T04:06:09.578Z,21.43
2022-08-05T04:08:14.797Z,21.34
2022-08-05T04:10:38.767Z,21.32
2022-08-05T04:14:47.235Z,21.29
2022-08-05T04:16:51.586Z,21.27
2022-08-05T04:18:58.687Z,21.39
2022-08-05T04:21:04.855Z,21.17
2022-08-05T04:23:12.333Z,21.20
2022-08-05T04:25:19.462Z,21.15
2022-08-05T04:27:43.907Z,21.05
2022-08-05T04:30:03.501Z,20.88
2022-08-05T04:32:08.570Z,20.78
2022-08-05T04:34:31.801Z,20.85
2022-08-05T04:36:49.397Z,21.00
2022-08-05T04:38:55.729Z,21.08
2022-08-05T04:41:00.434Z,21.31
2022-08-05T04:43:07.139Z,21.41
2022-08-05T04:45:31.105Z,21.46
2022-08-05T04:47:47.201Z,21.43
2022-08-05T04:50:02.770Z,21.44
2022-08-05T04:52:18.704Z,21.38
2022-08-05T04:54:27.005Z,21.30
2022-08-05T04:56:35.237Z,21.31
2022-08-05T04:58:40.848Z,21.28
2022-08-05T05:00:45.052Z,21.08
2022-08-05T05:02:54.295Z,21.05
2022-08-05T05:05:02.826Z,20.98
2022-08-05T05:07:09.395Z,20.95
2022-08-05T05:09:16.932Z,20.73
2022-08-05T05:11:23.397Z,20.83
2022-08-05T05:13:45.545Z,20.96
2022-08-05T05:15:57.246Z,21.12
2022-08-05T05:18:06.009Z,21.34
2022-08-05T05:20:11.053Z,21.41
2022-08-05T05:22:24.258Z,21.51
2022-08-05T05:24:56.215Z,21.49
2022-08-05T05:26:54.436Z,21.49
2022-08-05T05:29:00.651Z,21.53
2022-08-05T05:31:05.897Z,21.63
2022-08-05T05:33:15.898Z,21.57
2022-08-05T05:35:22.518Z,21.65
2022-08-05T05:37:37.346Z,21.62
2022-08-05T05:39:49.632Z,21.67
2022-08-05T05:41:54.692Z,21.70
2022-08-05T05:44:00.488Z,21.70
2022-08-05T05:46:05.284Z,21.71
2022-08-05T05:48:10.554Z,21.70
2022-08-05T05:50:16.463Z,21.69
2022-08-05T05:52:28.563Z,21.69
2022-08-05T05:54:49.756Z,21.80
2022-08-05T05:56:56.028Z,21.77
2022-08-05T05:59:03.420Z,21.68
2022-08-05T06:01:12.576Z,21.66
2022-08-05T06:03:40.009Z,21.68
2022-08-05T06:05:40.365Z,21.68
2022-08-05T06:07:57.985Z,21.69
2022-08-05T06:10:10.345Z,21.71
2022-08-05T06:12:15.611Z,21.73
2022-08-05T06:14:19.158Z,21.62
2022-08-05T06:16:28.840Z,21.56
2022-08-05T06:18:39.351Z,21.54
2022-08-05T06:20:42.889Z,21.53
2022-08-05T06:22:51.354Z,21.54
2022-08-05T06:24:54.924Z,21.45
2022-08-05T06:26:59.039Z,21.44
2022-08-05T06:29:06.431Z,21.50
2022-08-05T06:31:30.337Z,21.56
2022-08-05T06:34:06.201Z,21.40
2022-08-05T06:36:08.168Z,21.32
2022-08-05T06:38:13.787Z,21.57
2022-08-05T06:40:18.184Z,21.68
2022-08-05T06:42:24.391Z,21.48
2022-08-05T06:44:31.114Z,21.31
2022-08-05T06:46:35.047Z,21.33
2022-08-05T06:48:55.785Z,21.43
2022-08-05T06:51:02.177Z,21.36
2022-08-05T06:53:22.636Z,21.33
2022-08-05T06:55:36.354Z,21.44
2022-08-05T06:58:03.835Z,21.55
2022-08-05T07:00:09.679Z,21.56
2022-08-05T07:02:13.349Z,21.42
2022-08-05T07:04:19.182Z,21.50
2022-08-05T07:06:23.307Z,21.43
2022-08-05T07:08:28.784Z,21.32
2022-08-05T07:10:32.897Z,21.30
2022-08-05T07:12:54.543Z,21.43
2022-08-05T07:15:34.647Z,21.47
2022-08-05T07:18:09.194Z,21.61
2022-08-05T07:22:30.447Z,21.24
2022-08-05T07:24:35.146Z,21.19
2022-08-05T07:26:48.092Z,21.02
2022-08-05T07:28:51.627Z,21.07
2022-08-05T07:30:55.283Z,21.01
2022-08-05T07:33:00.180Z,20.94
2022-08-05T07:36:02.248Z,20.91
2022-08-05T07:37:29.116Z,20.84
2022-08-05T07:40:26.212Z,20.84
2022-08-05T07:42:14.383Z,20.84
2022-08-05T07:44:19.670Z,20.94
2022-08-05T07:46:25.557Z,21.01
2022-08-05T07:49:01.586Z,21.22
2022-08-05T07:50:55.116Z,21.06
2022-08-05T07:53:03.344Z,21.01
2022-08-05T07:55:43.846Z,20.99
2022-08-05T07:57:51.275Z,20.93
2022-08-05T07:59:55.445Z,20.56
2022-08-05T08:01:59.198Z,20.83
2022-08-05T08:04:08.824Z,20.73
2022-08-05T08:06:12.352Z,20.71
2022-08-05T08:08:19.951Z,20.77
2022-08-05T08:10:23.893Z,20.56
2022-08-05T08:12:48.414Z,20.32
2022-08-05T08:14:53.452Z,20.13
2022-08-05T08:16:56.851Z,20.10
2022-08-05T08:19:00.454Z,19.87
2022-08-05T08:21:09.787Z,20.01
2022-08-05T08:24:02.938Z,19.85
2022-08-05T08:25:59.691Z,19.88
2022-08-05T08:28:05.059Z,19.82
2022-08-05T08:30:28.572Z,20.18
2022-08-05T08:32:36.194Z,20.15
2022-08-05T08:34:45.262Z,20.27
2022-08-05T08:36:56.643Z,20.34
2022-08-05T08:39:04.014Z,20.21
2022-08-05T08:41:14.171Z,20.10
2022-08-05T08:45:16.160Z,19.88
2022-08-05T08:45:44.814Z,19.90
2022-08-05T08:48:07.176Z,20.04
2022-08-05T08:50:52.638Z,20.03
2022-08-05T08:52:51.402Z,19.95
2022-08-05T08:54:55.686Z,19.88
2022-08-05T08:57:02.495Z,20.12
2022-08-05T08:59:14.734Z,20.13
2022-08-05T09:01:23.034Z,19.91
2022-08-05T09:03:26.876Z,19.85
2022-08-05T09:06:07.703Z,19.82
2022-08-05T09:08:09.839Z,19.87
2022-08-05T09:10:13.420Z,19.81
2022-08-05T09:12:30.079Z,19.84
2022-08-05T09:14:57.194Z,19.68
2022-08-05T09:16:57.812Z,19.95
2022-08-05T09:19:06.973Z,19.97
2022-08-05T09:21:11.759Z,20.18
2022-08-05T09:23:27.287Z,20.02
2022-08-05T09:26:02.417Z,20.34
2022-08-05T09:28:14.449Z,20.18
2022-08-05T09:30:25.411Z,20.01
2022-08-05T09:32:51.104Z,20.20
2022-08-05T09:34:56.062Z,19.94
2022-08-05T09:36:59.922Z,20.09
2022-08-05T09:39:16.464Z,20.40
2022-08-05T09:41:24.937Z,20.28
2022-08-05T09:43:41.810Z,20.18
2022-08-05T09:46:06.465Z,19.86
2022-08-05T09:48:26.834Z,19.88
2022-08-05T09:50:44.079Z,20.34
2022-08-05T09:52:48.387Z,20.53
2022-08-05T09:55:06.355Z,20.41
2022-08-05T09:57:35.313Z,20.17
2022-08-05T09:59:48.537Z,19.85
2022-08-05T10:01:58.225Z,19.83
2022-08-05T10:04:04.647Z,19.92
2022-08-05T10:06:15.616Z,19.89
2022-08-05T10:08:36.707Z,20.01
2022-08-05T10:10:53.871Z,20.15
2022-08-05T10:12:59.902Z,20.13
2022-08-05T10:15:23.902Z,19.99
2022-08-05T10:17:37.208Z,19.94
2022-08-05T10:20:04.181Z,19.87
2022-08-05T10:22:09.125Z,19.88
2022-08-05T10:24:20.894Z,19.91
2022-08-05T10:26:33.862Z,20.11
2022-08-05T10:28:37.524Z,20.37
2022-08-05T10:32:51.958Z,20.06
2022-08-05T10:33:08.995Z,20.53
2022-08-05T10:35:17.982Z,20.44
2022-08-05T10:37:22.246Z,20.48
2022-08-05T10:39:59.346Z,20.48
2022-08-05T10:42:06.343Z,20.58
2022-08-05T10:44:13.959Z,20.64
2022-08-05T10:46:23.984Z,20.62
2022-08-05T10:48:52.741Z,20.62
2022-08-05T10:51:03.362Z,20.84
2022-08-05T10:53:34.419Z,21.47
2022-08-05T10:56:14.562Z,21.51
2022-08-05T10:58:47.814Z,21.58
2022-08-05T11:00:55.227Z,21.99
2022-08-05T11:03:24.700Z,22.02
2022-08-05T11:05:31.719Z,22.26
2022-08-05T11:08:01.475Z,21.89
2022-08-05T11:10:09.749Z,21.70
2022-08-05T11:12:50.565Z,21.68
2022-08-05T11:15:19.857Z,21.52
2022-08-05T11:17:59.161Z,21.90
2022-08-05T11:20:10.192Z,22.33
2022-08-05T11:22:42.520Z,22.60
2022-08-05T11:25:16.501Z,22.46
2022-08-05T11:27:51.036Z,22.71
2022-08-05T11:30:01.053Z,22.72
2022-08-05T11:32:28.430Z,23.26
2022-08-05T11:34:50.883Z,23.47
2022-08-05T11:36:57.370Z,23.49
2022-08-05T11:39:01.226Z,23.53
2022-08-05T11:41:34.996Z,23.76
2022-08-05T11:43:58.484Z,23.76
2022-08-05T11:46:23.428Z,23.77
2022-08-05T11:48:20.267Z,23.90
2022-08-05T11:50:25.239Z,23.87
2022-08-05T11:52:31.160Z,23.94
2022-08-05T11:54:36.540Z,24.11
2022-08-05T11:56:50.185Z,24.55
2022-08-05T11:58:54.140Z,24.80
2022-08-05T12:01:04.623Z,24.75
2022-08-05T12:03:23.808Z,24.93
2022-08-05T12:05:36.240Z,25.08
2022-08-05T12:08:03.520Z,25.22
2022-08-05T12:10:11.581Z,25.23
2022-08-05T12:12:22.737Z,25.65
2022-08-05T12:14:37.785Z,25.88
2022-08-05T12:16:45.153Z,25.45
2022-08-05T12:18:52.972Z,25.26
2022-08-05T12:20:57.087Z,25.24
2022-08-05T12:23:10.434Z,25.07
2022-08-05T12:25:14.235Z,25.00
2022-08-05T12:27:25.428Z,24.98
2022-08-05T12:29:38.038Z,24.73
2022-08-05T12:31:49.960Z,24.33
2022-08-05T12:33:58.819Z,24.10
2022-08-05T12:36:03.529Z,23.96
2022-08-05T12:38:11.026Z,23.87
2022-08-05T12:40:26.579Z,24.06
2022-08-05T12:42:32.627Z,24.13
2022-08-05T12:44:36.315Z,24.14
2022-08-05T12:46:41.374Z,24.56
2022-08-05T12:48:49.257Z,24.86
2022-08-05T12:52:10.538Z,25.05
2022-08-05T12:53:43.759Z,25.47
2022-08-05T12:55:59.249Z,25.78
2022-08-05T12:58:50.750Z,25.91
2022-08-05T13:02:03.099Z,26.22
2022-08-05T13:02:55.608Z,26.45
2022-08-05T13:04:59.279Z,26.26
2022-08-05T13:07:19.496Z,26.18
2022-08-05T13:09:31.454Z,25.76
2022-08-05T13:12:02.289Z,25.61
2022-08-05T13:14:05.926Z,25.91
2022-08-05T13:16:15.396Z,25.62
2022-08-05T13:18:21.263Z,25.23
2022-08-05T13:20:35.382Z,25.06
2022-08-05T13:22:49.756Z,25.47
2022-08-05T13:24:58.076Z,25.80
2022-08-05T13:27:04.834Z,26.15
2022-08-05T13:29:08.274Z,26.18
2022-08-05T13:31:14.413Z,26.45
2022-08-05T13:34:24.190Z,26.85
2022-08-05T13:35:47.418Z,27.17
2022-08-05T13:37:56.742Z,26.86
2022-08-05T13:40:15.165Z,26.54
2022-08-05T13:42:24.510Z,26.24
2022-08-05T13:44:28.592Z,26.00
2022-08-05T13:48:57.367Z,26.20
2022-08-05T13:51:07.251Z,26.22
2022-08-05T13:53:15.905Z,25.95
2022-08-05T13:55:41.880Z,25.64
2022-08-05T13:57:50.774Z,25.34
2022-08-05T13:59:59.342Z,25.07
2022-08-05T14:02:19.887Z,24.73
2022-08-05T14:04:41.481Z,24.55
2022-08-05T14:06:47.645Z,24.31
2022-08-05T14:08:52.725Z,24.17
2022-08-05T14:11:08.070Z,24.11
2022-08-05T14:13:19.960Z,24.10
2022-08-05T14:16:08.431Z,23.86
2022-08-05T14:17:51.040Z,23.79
2022-08-05T14:20:04.377Z,23.69
2022-08-05T14:22:11.315Z,23.56
2022-08-05T14:24:19.490Z,23.49
2022-08-05T14:26:38.465Z,23.53
2022-08-05T14:28:52.322Z,23.60
2022-08-05T14:30:55.983Z,23.68
2022-08-05T14:32:59.465Z,23.80
2022-08-05T14:35:03.041Z,24.29
2022-08-05T14:37:06.906Z,24.85
2022-08-05T14:39:11.023Z,25.32
2022-08-05T14:41:17.825Z,25.90
2022-08-05T14:43:22.236Z,26.12
2022-08-05T14:45:45.704Z,25.86
2022-08-05T14:48:04.093Z,25.55
2022-08-05T14:50:17.353Z,25.18
2022-08-05T14:52:50.472Z,24.86
2022-08-05T14:54:53.077Z,24.64
2022-08-05T14:56:58.763Z,24.56
2022-08-05T14:59:02.456Z,24.48
2022-08-05T15:01:06.825Z,24.33
2022-08-05T15:03:19.683Z,24.26
2022-08-05T15:05:29.907Z,24.25
2022-08-05T15:08:06.661Z,24.24
2022-08-05T15:09:57.316Z,24.13
2022-08-05T15:12:09.039Z,24.38
2022-08-05T15:14:33.217Z,24.34
2022-08-05T15:16:36.369Z,24.24
2022-08-05T15:18:40.682Z,24.20
2022-08-05T15:20:44.773Z,24.16
2022-08-05T15:22:54.091Z,23.99
2022-08-05T15:24:59.327Z,24.02
2022-08-05T15:27:02.896Z,23.95
2022-08-05T15:29:08.354Z,23.83
2022-08-05T15:31:11.935Z,23.80
2022-08-05T15:33:56.790Z,23.87
2022-08-05T15:35:45.457Z,23.81
2022-08-05T15:38:31.935Z,23.82
2022-08-05T15:40:59.390Z,23.81
2022-08-05T15:42:56.555Z,23.89
2022-08-05T15:45:02.235Z,23.71
2022-08-05T15:47:05.947Z,23.99
2022-08-05T15:49:10.780Z,24.06
2022-08-05T15:51:17.075Z,24.26
2022-08-05T15:53:21.358Z,24.34
2022-08-05T15:56:02.436Z,24.31
2022-08-05T15:57:48.836Z,24.25
2022-08-05T15:59:56.719Z,24.17
2022-08-05T16:02:02.766Z,24.16
2022-08-05T16:04:13.368Z,24.07
2022-08-05T16:06:23.163Z,24.09
2022-08-05T16:08:30.643Z,24.00
2022-08-05T16:10:34.359Z,23.89
2022-08-05T16:12:37.848Z,23.79
2022-08-05T16:14:41.303Z,23.82
2022-08-05T16:16:45.198Z,23.79
2022-08-05T16:18:52.290Z,23.79
2022-08-05T16:20:56.222Z,23.91
2022-08-05T16:22:59.663Z,24.13
2022-08-05T16:25:08.158Z,24.21
2022-08-05T16:27:15.981Z,24.17
2022-08-05T16:29:20.047Z,24.26
2022-08-05T16:31:24.976Z,24.35
2022-08-05T16:33:32.146Z,24.42
2022-08-05T16:35:52.493Z,24.40
2022-08-05T16:38:03.119Z,24.38
2022-08-05T16:40:26.709Z,24.53
2022-08-05T16:42:32.880Z,24.50
2022-08-05T16:44:37.601Z,24.34
2022-08-05T16:46:42.507Z,24.34
2022-08-05T16:49:00.055Z,24.29
2022-08-05T16:51:10.052Z,24.13
2022-08-05T16:53:23.011Z,24.16
2022-08-05T16:55:46.943Z,24.14
2022-08-05T16:57:59.927Z,24.06
2022-08-05T17:00:08.710Z,23.94
2022-08-05T17:02:14.195Z,23.81
2022-08-05T17:04:18.626Z,23.93
2022-08-05T17:06:24.439Z,24.02
2022-08-05T17:08:36.348Z,23.93
2022-08-05T17:10:51.825Z,23.32
2022-08-05T17:12:55.713Z,23.70
2022-08-05T17:14:59.337Z,23.75
2022-08-05T17:17:03.435Z,23.60
2022-08-05T17:19:09.609Z,23.55
2022-08-05T17:21:13.262Z,23.53
2022-08-05T17:24:06.068Z,23.41
2022-08-05T17:25:43.969Z,23.41
2022-08-05T17:27:47.485Z,23.43
2022-08-05T17:29:53.076Z,23.82
2022-08-05T17:32:04.630Z,24.10
2022-08-05T17:34:08.180Z,24.36
2022-08-05T17:36:31.774Z,24.24
2022-08-05T17:38:36.810Z,24.63
2022-08-05T17:40:40.268Z,24.87
2022-08-05T17:42:50.790Z,25.12
2022-08-05T17:44:55.223Z,25.02
2022-08-05T17:46:58.696Z,24.90
2022-08-05T17:49:02.799Z,24.67
2022-08-05T17:51:09.277Z,24.54
2022-08-05T17:53:13.047Z,24.46
2022-08-05T17:55:19.701Z,24.44
2022-08-05T17:57:23.099Z,24.67
2022-08-05T17:59:28.029Z,24.70
2022-08-05T18:01:49.217Z,24.71
2022-08-05T18:04:03.796Z,24.61
2022-08-05T18:06:12.127Z,24.42
2022-08-05T18:08:18.528Z,24.43
2022-08-05T18:10:23.376Z,24.41
2022-08-05T18:12:27.069Z,24.27
2022-08-05T18:14:31.719Z,24.22
2022-08-05T18:16:46.860Z,24.06
2022-08-05T18:18:55.758Z,23.86
2022-08-05T18:21:00.807Z,23.77
2022-08-05T18:23:11.495Z,23.74
2022-08-05T18:25:17.035Z,23.54
2022-08-05T18:27:21.947Z,23.41
2022-08-05T18:29:40.547Z,23.28
2022-08-05T18:31:44.903Z,23.23
2022-08-05T18:33:49.808Z,23.22
2022-08-05T18:36:03.729Z,23.06
2022-08-05T18:38:09.328Z,23.02
2022-08-05T18:40:34.569Z,22.93
2022-08-05T18:42:39.281Z,22.92
2022-08-05T18:44:55.363Z,22.95
2022-08-05T18:46:59.846Z,22.84
2022-08-05T18:49:26.616Z,22.56
2022-08-05T18:52:06.034Z,22.81
2022-08-05T18:54:12.095Z,22.73
2022-08-05T18:56:16.875Z,22.84
2022-08-05T18:58:28.639Z,22.76
2022-08-05T19:00:34.670Z,22.69
2022-08-05T19:02:38.743Z,22.71
2022-08-05T19:05:02.477Z,22.67
2022-08-05T19:07:06.625Z,22.68
2022-08-05T19:09:12.208Z,22.60
2022-08-05T19:11:15.894Z,22.63
2022-08-05T19:13:35.952Z,22.59
2022-08-05T19:16:00.033Z,22.51
2022-08-05T19:18:10.059Z,22.25
2022-08-05T19:20:15.255Z,22.22
2022-08-05T19:22:19.181Z,22.18
2022-08-05T19:24:34.686Z,22.08
2022-08-05T19:26:54.410Z,21.99
2022-08-05T19:29:01.059Z,21.89
2022-08-05T19:31:13.178Z,21.83
2022-08-05T19:33:17.507Z,21.81
2022-08-05T19:35:56.669Z,21.76
2022-08-05T19:38:06.379Z,21.82
2022-08-05T19:40:12.260Z,21.78
2022-08-05T19:42:15.795Z,21.84
2022-08-05T19:44:20.963Z,21.68
2022-08-05T19:46:30.031Z,21.74
2022-08-05T19:48:36.223Z,21.75
2022-08-05T19:50:40.126Z,21.72
2022-08-05T19:52:44.072Z,21.60
2022-08-05T19:54:51.284Z,21.53
2022-08-05T19:56:55.178Z,21.52
2022-08-05T19:58:58.523Z,21.49
2022-08-05T20:01:28.627Z,21.43
2022-08-05T20:03:40.758Z,21.39
2022-08-05T20:05:51.471Z,21.36
2022-08-05T20:07:59.093Z,21.29
2022-08-05T20:10:04.959Z,21.29
2022-08-05T20:12:17.252Z,21.26
2022-08-05T20:14:26.705Z,21.24
2022-08-05T20:16:32.026Z,21.20
2022-08-05T20:18:36.892Z,21.07
2022-08-05T20:20:44.487Z,21.10
2022-08-05T20:22:48.273Z,21.24
2022-08-05T20:24:52.877Z,21.51
2022-08-05T20:26:57.354Z,21.50
2022-08-05T20:29:01.067Z,21.67
2022-08-05T20:31:05.113Z,21.95
2022-08-05T20:33:09.974Z,21.69
2022-08-05T20:35:13.562Z,21.94
2022-08-05T20:37:18.223Z,21.80
2022-08-05T20:39:41.741Z,21.87
2022-08-05T20:41:48.759Z,21.80
2022-08-05T20:43:58.899Z,22.02
2022-08-05T20:46:06.746Z,22.03
2022-08-05T20:48:11.986Z,21.97
2022-08-05T20:50:19.925Z,22.08
2022-08-05T20:52:23.564Z,21.94
2022-08-05T20:54:58.903Z,21.94
2022-08-05T20:56:53.181Z,21.83
2022-08-05T20:59:00.047Z,21.89
2022-08-05T21:01:17.473Z,21.67
2022-08-05T21:03:22.298Z,21.42
2022-08-05T21:05:25.918Z,21.22
2022-08-05T21:07:50.826Z,21.17
2022-08-05T21:09:55.493Z,20.90
2022-08-05T21:12:09.702Z,20.96
2022-08-05T21:14:14.498Z,20.86
2022-08-05T21:16:18.025Z,20.88
2022-08-05T21:18:23.361Z,20.81
2022-08-05T21:20:32.955Z,20.33
2022-08-05T21:22:37.180Z,20.56
2022-08-05T21:24:42.624Z,20.57
2022-08-05T21:26:53.145Z,20.48
2022-08-05T21:29:03.876Z,20.34
2022-08-05T21:31:07.799Z,20.21
2022-08-05T21:33:22.476Z,20.21
2022-08-05T21:35:29.710Z,20.29
2022-08-05T21:37:34.027Z,20.29
2022-08-05T21:39:40.772Z,20.17
2022-08-05T21:41:52.809Z,20.00
2022-08-05T21:44:07.873Z,20.06
2022-08-05T21:46:14.552Z,19.94
2022-08-05T21:48:21.700Z,19.98
2022-08-05T21:50:29.397Z,20.00
2022-08-05T21:52:34.601Z,19.71
2022-08-05T21:54:40.430Z,19.94
2022-08-05T21:56:51.447Z,20.02
2022-08-05T21:58:57.450Z,19.92
2022-08-05T22:01:01.736Z,19.88
2022-08-05T22:03:05.251Z,19.98
2022-08-05T22:05:09.781Z,20.02
2022-08-05T22:07:14.988Z,19.96
2022-08-05T22:09:20.803Z,20.00
2022-08-05T22:11:34.940Z,19.98
2022-08-05T22:14:06.030Z,19.95
2022-08-05T22:16:20.379Z,19.92
2022-08-05T22:18:26.149Z,19.83
2022-08-05T22:20:30.663Z,19.83
2022-08-05T22:22:57.577Z,19.83
2022-08-05T22:25:27.264Z,19.84
2022-08-05T22:28:08.035Z,19.80
2022-08-05T22:30:08.363Z,19.73
2022-08-05T22:32:17.485Z,19.79
2022-08-05T22:34:28.526Z,19.68
2022-08-05T22:36:32.632Z,19.60
2022-08-05T22:38:37.637Z,19.60
2022-08-05T22:40:40.999Z,19.69
2022-08-05T22:42:45.708Z,19.64
2022-08-05T22:44:57.179Z,19.45
2022-08-05T22:47:00.707Z,19.48
2022-08-05T22:49:12.069Z,19.47
2022-08-05T22:52:05.526Z,19.39
2022-08-05T22:53:55.041Z,19.37
2022-08-05T22:55:59.404Z,19.30
2022-08-05T22:58:03.170Z,19.30
2022-08-05T23:00:10.293Z,19.36
2022-08-05T23:02:29.051Z,19.33
2022-08-05T23:04:33.478Z,19.28
2022-08-05T23:06:36.966Z,19.19
2022-08-05T23:08:41.042Z,19.08
2022-08-05T23:10:45.782Z,19.12
2022-08-05T23:12:51.160Z,19.05
2022-08-05T23:14:57.701Z,19.00
2022-08-05T23:17:24.538Z,18.99
2022-08-05T23:19:41.845Z,18.91
2022-08-05T23:21:54.346Z,18.83
2022-08-05T23:23:57.817Z,18.88
2022-08-05T23:26:03.084Z,18.83
2022-08-05T23:28:07.871Z,18.75
2022-08-05T23:30:12.293Z,18.72
2022-08-05T23:32:16.610Z,18.70
2022-08-05T23:34:26.075Z,18.80
2022-08-05T23:36:38.498Z,18.80
2022-08-05T23:38:43.805Z,18.80
2022-08-05T23:40:49.534Z,18.77
2022-08-05T23:42:55.276Z,18.76
2022-08-05T23:44:58.789Z,18.74
2022-08-05T23:47:15.442Z,18.72
2022-08-05T23:49:23.855Z,18.69
2022-08-05T23:51:53.395Z,18.63
2022-08-05T23:54:00.938Z,18.60
2022-08-05T23:56:05.160Z,18.55
2022-08-05T23:58:31.733Z,18.57
